sensor_id;sensor_type;location;lat;lon;timestamp;temperature;humidity
2002;DHT22;1003;48.002;7.788;2022-08-25T00:09:33;21.30;99.90
2002;DHT22;1003;48.002;7.788;2022-08-25T00:19:34;21.30;99.90
2002;DHT22;1003;48.002;7.788;2022-08-25T00:39:28;21.70;99.90
2002;DHT22;1003;48.002;7.788;2022-08-25T00:41:57;21.50;99.90
2002;DHT22;1003;48.002;7.788;2022-08-25T01:31:59;21.30;99.90
2002;DHT22;1003;48.002;7.788;2022-08-25T01:34:31;21.30;99.90
2002;DHT22;1003;48.002;7.788;2022-08-25T01:37:02;21.30;99.90
2002;DHT22;1003;48.002;7.788;2022-08-25T01:39:31;21.20;99.90
2002;DHT22;1003;48.002;7.788;2022-08-25T01:42:16;21.20;99.90
2002;DHT22;1003;48.002;7.788;2022-08-25T01:44:49;21.00;99.90
2002;DHT22;1003;48.002;7.788;2022-08-25T01:47:17;20.90;99.90
2002;DHT22;1003;48.002;7.788;2022-08-25T01:49:44;20.70;99.90
2002;DHT22;1003;48.002;7.788;2022-08-25T01:52:15;20.60;99.90
2002;DHT22;1003;48.002;7.788;2022-08-25T01:54:46;20.50;99.90
2002;DHT22;1003;48.002;7.788;2022-08-25T01:57:13;20.50;99.90
2002;DHT22;1003;48.002;7.788;2022-08-25T01:59:41;20.30;99.90
2002;DHT22;1003;48.002;7.788;2022-08-25T02:02:09;20.40;99.90
2002;DHT22;1003;48.002;7.788;2022-08-25T02:04:37;20.20;99.90
2002;DHT22;1003;48.002;7.788;2022-08-25T02:07:06;20.10;99.90
2002;DHT22;1003;48.002;7.788;2022-08-25T02:09:37;20.00;99.90
2002;DHT22;1003;48.002;7.788;2022-08-25T02:12:05;20.00;99.90
2002;DHT22;1003;48.002;7.788;2022-08-25T02:14:33;19.70;99.90
2002;DHT22;1003;48.002;7.788;2022-08-25T02:17:02;19.60;99.90
2002;DHT22;1003;48.002;7.788;2022-08-25T02:19:30;19.60;99.90
2002;DHT22;1003;48.002;7.788;2022-08-25T02:21:58;19.70;99.90
2002;DHT22;1003;48.002;7.788;2022-08-25T02:24:25;19.50;99.90
2002;DHT22;1003;48.002;7.788;2022-08-25T02:26:54;19.60;99.90
2002;DHT22;1003;48.002;7.788;2022-08-25T02:29:22;19.70;99.90
2002;DHT22;1003;48.002;7.788;2022-08-25T02:31:49;19.70;99.90
2002;DHT22;1003;48.002;7.788;2022-08-25T02:34:17;19.70;99.90
2002;DHT22;1003;48.002;7.788;2022-08-25T02:36:44;19.90;99.90
2002;DHT22;1003;48.002;7.788;2022-08-25T02:39:11;20.00;99.90
2002;DHT22;1003;48.002;7.788;2022-08-25T02:41:38;19.70;99.90
2002;DHT22;1003;48.002;7.788;2022-08-25T02:44:08;19.70;99.90
2002;DHT22;1003;48.002;7.788;2022-08-25T02:46:36;19.60;99.90
2002;DHT22;1003;48.002;7.788;2022-08-25T02:49:03;19.50;99.90
2002;DHT22;1003;48.002;7.788;2022-08-25T02:51:32;19.30;99.90
2002;DHT22;1003;48.002;7.788;2022-08-25T02:54:01;19.20;99.90
2002;DHT22;1003;48.002;7.788;2022-08-25T02:56:31;19.00;99.90
2002;DHT22;1003;48.002;7.788;2022-08-25T02:58:59;19.10;99.90
2002;DHT22;1003;48.002;7.788;2022-08-25T03:01:29;18.80;99.90
2002;DHT22;1003;48.002;7.788;2022-08-25T03:03:57;18.90;99.90
2002;DHT22;1003;48.002;7.788;2022-08-25T03:06:26;18.70;99.90
2002;DHT22;1003;48.002;7.788;2022-08-25T03:08:54;18.70;99.90
2002;DHT22;1003;48.002;7.788;2022-08-25T03:11:21;18.50;99.90
2002;DHT22;1003;48.002;7.788;2022-08-25T03:13:50;18.40;99.90
2002;DHT22;1003;48.002;7.788;2022-08-25T03:16:19;18.40;99.90
2002;DHT22;1003;48.002;7.788;2022-08-25T03:18:48;18.30;99.90
2002;DHT22;1003;48.002;7.788;2022-08-25T03:21:15;18.10;99.90
2002;DHT22;1003;48.002;7.788;2022-08-25T03:23:43;17.70;99.90
2002;DHT22;1003;48.002;7.788;2022-08-25T03:26:11;17.50;99.90
2002;DHT22;1003;48.002;7.788;2022-08-25T03:28:56;17.60;99.90
2002;DHT22;1003;48.002;7.788;2022-08-25T03:31:24;17.30;99.90
2002;DHT22;1003;48.002;7.788;2022-08-25T03:33:53;17.20;99.90
2002;DHT22;1003;48.002;7.788;2022-08-25T03:36:21;17.20;99.90
2002;DHT22;1003;48.002;7.788;2022-08-25T03:38:49;17.10;99.90
2002;DHT22;1003;48.002;7.788;2022-08-25T03:41:19;17.10;99.90
2002;DHT22;1003;48.002;7.788;2022-08-25T03:43:49;17.10;99.90
2002;DHT22;1003;48.002;7.788;2022-08-25T03:46:18;17.00;99.90
2002;DHT22;1003;48.002;7.788;2022-08-25T03:48:47;17.10;99.90
2002;DHT22;1003;48.002;7.788;2022-08-25T03:51:20;17.00;99.90
2002;DHT22;1003;48.002;7.788;2022-08-25T03:53:49;16.90;99.90
2002;DHT22;1003;48.002;7.788;2022-08-25T03:56:17;16.90;99.90
2002;DHT22;1003;48.002;7.788;2022-08-25T03:58:45;16.90;99.90
2002;DHT22;1003;48.002;7.788;2022-08-25T04:01:12;16.90;99.90
2002;DHT22;1003;48.002;7.788;2022-08-25T04:03:39;16.80;99.90
2002;DHT22;1003;48.002;7.788;2022-08-25T04:06:07;16.80;99.90
2002;DHT22;1003;48.002;7.788;2022-08-25T04:08:36;16.80;99.90
2002;DHT22;1003;48.002;7.788;2022-08-25T04:11:09;16.80;99.90
2002;DHT22;1003;48.002;7.788;2022-08-25T04:13:39;16.80;99.90
2002;DHT22;1003;48.002;7.788;2022-08-25T04:16:10;16.70;99.90
2002;DHT22;1003;48.002;7.788;2022-08-25T04:18:39;16.80;99.90
2002;DHT22;1003;48.002;7.788;2022-08-25T04:21:08;16.70;99.90
2002;DHT22;1003;48.002;7.788;2022-08-25T04:23:38;16.50;99.90
2002;DHT22;1003;48.002;7.788;2022-08-25T04:26:08;16.60;99.90
2002;DHT22;1003;48.002;7.788;2022-08-25T04:28:36;16.60;99.90
2002;DHT22;1003;48.002;7.788;2022-08-25T04:31:05;16.50;99.90
2002;DHT22;1003;48.002;7.788;2022-08-25T04:33:33;16.50;99.90
2002;DHT22;1003;48.002;7.788;2022-08-25T04:36:00;16.50;99.90
2002;DHT22;1003;48.002;7.788;2022-08-25T04:38:27;16.50;99.90
2002;DHT22;1003;48.002;7.788;2022-08-25T04:40:57;16.40;99.90
2002;DHT22;1003;48.002;7.788;2022-08-25T04:43:25;16.40;99.90
2002;DHT22;1003;48.002;7.788;2022-08-25T04:45:52;16.30;99.90
2002;DHT22;1003;48.002;7.788;2022-08-25T04:48:20;16.20;99.90
2002;DHT22;1003;48.002;7.788;2022-08-25T04:50:47;16.30;99.90
2002;DHT22;1003;48.002;7.788;2022-08-25T04:53:15;16.30;99.90
2002;DHT22;1003;48.002;7.788;2022-08-25T04:55:44;16.30;99.90
2002;DHT22;1003;48.002;7.788;2022-08-25T04:58:14;16.30;99.90
2002;DHT22;1003;48.002;7.788;2022-08-25T05:00:42;16.30;99.90
2002;DHT22;1003;48.002;7.788;2022-08-25T05:03:11;16.40;99.90
2002;DHT22;1003;48.002;7.788;2022-08-25T05:05:38;16.50;99.90
2002;DHT22;1003;48.002;7.788;2022-08-25T05:08:06;16.50;99.90
2002;DHT22;1003;48.002;7.788;2022-08-25T05:10:33;16.60;99.90
2002;DHT22;1003;48.002;7.788;2022-08-25T05:13:00;16.70;99.90
2002;DHT22;1003;48.002;7.788;2022-08-25T05:15:28;16.70;99.90
2002;DHT22;1003;48.002;7.788;2022-08-25T05:18:13;16.80;99.90
2002;DHT22;1003;48.002;7.788;2022-08-25T05:20:41;16.90;99.90
2002;DHT22;1003;48.002;7.788;2022-08-25T05:23:08;16.90;99.90
2002;DHT22;1003;48.002;7.788;2022-08-25T05:25:35;17.00;99.90
2002;DHT22;1003;48.002;7.788;2022-08-25T05:28:02;17.30;99.90
2002;DHT22;1003;48.002;7.788;2022-08-25T05:30:31;17.20;99.90
2002;DHT22;1003;48.002;7.788;2022-08-25T05:32:58;17.40;99.90
2002;DHT22;1003;48.002;7.788;2022-08-25T05:35:26;17.40;99.90
2002;DHT22;1003;48.002;7.788;2022-08-25T05:37:53;17.40;99.90
2002;DHT22;1003;48.002;7.788;2022-08-25T05:40:21;17.30;99.90
2002;DHT22;1003;48.002;7.788;2022-08-25T05:42:49;17.30;99.90
2002;DHT22;1003;48.002;7.788;2022-08-25T05:45:16;17.40;99.90
2002;DHT22;1003;48.002;7.788;2022-08-25T05:47:45;17.40;99.90
2002;DHT22;1003;48.002;7.788;2022-08-25T05:50:12;17.60;99.90
2002;DHT22;1003;48.002;7.788;2022-08-25T05:52:39;17.70;99.90
2002;DHT22;1003;48.002;7.788;2022-08-25T05:55:07;17.80;99.90
2002;DHT22;1003;48.002;7.788;2022-08-25T05:57:34;18.30;99.90
2002;DHT22;1003;48.002;7.788;2022-08-25T06:00:03;18.40;99.90
2002;DHT22;1003;48.002;7.788;2022-08-25T06:02:32;18.50;99.90
2002;DHT22;1003;48.002;7.788;2022-08-25T06:05:13;18.70;99.90
2002;DHT22;1003;48.002;7.788;2022-08-25T06:07:42;19.90;99.90
2002;DHT22;1003;48.002;7.788;2022-08-25T06:10:10;21.40;99.90
2002;DHT22;1003;48.002;7.788;2022-08-25T06:12:40;22.60;99.90
2002;DHT22;1003;48.002;7.788;2022-08-25T06:15:10;24.10;99.90
2002;DHT22;1003;48.002;7.788;2022-08-25T06:17:38;24.90;99.90
2002;DHT22;1003;48.002;7.788;2022-08-25T06:20:11;25.90;99.90
2002;DHT22;1003;48.002;7.788;2022-08-25T06:22:40;26.50;99.90
2002;DHT22;1003;48.002;7.788;2022-08-25T06:25:09;26.80;99.90
2002;DHT22;1003;48.002;7.788;2022-08-25T06:27:38;27.50;99.90
2002;DHT22;1003;48.002;7.788;2022-08-25T06:30:09;26.50;99.90
2002;DHT22;1003;48.002;7.788;2022-08-25T06:32:40;26.40;99.90
2002;DHT22;1003;48.002;7.788;2022-08-25T06:35:12;27.30;99.90
2002;DHT22;1003;48.002;7.788;2022-08-25T06:37:40;28.40;99.90
2002;DHT22;1003;48.002;7.788;2022-08-25T06:40:09;28.30;99.90
2002;DHT22;1003;48.002;7.788;2022-08-25T06:42:38;27.60;99.90
2002;DHT22;1003;48.002;7.788;2022-08-25T06:45:06;27.20;99.90
2002;DHT22;1003;48.002;7.788;2022-08-25T06:47:34;27.00;99.90
2002;DHT22;1003;48.002;7.788;2022-08-25T06:50:01;27.10;99.90
2002;DHT22;1003;48.002;7.788;2022-08-25T06:52:30;27.30;99.90
2002;DHT22;1003;48.002;7.788;2022-08-25T06:54:58;27.20;99.90
2002;DHT22;1003;48.002;7.788;2022-08-25T06:57:25;26.80;99.90
2002;DHT22;1003;48.002;7.788;2022-08-25T06:59:52;27.20;99.90
2002;DHT22;1003;48.002;7.788;2022-08-25T07:02:19;27.40;99.90
2002;DHT22;1003;48.002;7.788;2022-08-25T07:04:46;26.90;99.90
2002;DHT22;1003;48.002;7.788;2022-08-25T07:07:14;27.20;99.90
2002;DHT22;1003;48.002;7.788;2022-08-25T07:09:42;27.10;99.90
2002;DHT22;1003;48.002;7.788;2022-08-25T07:12:09;27.10;99.90
2002;DHT22;1003;48.002;7.788;2022-08-25T07:14:37;27.10;99.90
2002;DHT22;1003;48.002;7.788;2022-08-25T07:17:04;27.10;99.90
2002;DHT22;1003;48.002;7.788;2022-08-25T07:19:31;27.10;99.90
2002;DHT22;1003;48.002;7.788;2022-08-25T07:21:58;26.90;99.90
2002;DHT22;1003;48.002;7.788;2022-08-25T07:24:26;27.10;99.90
2002;DHT22;1003;48.002;7.788;2022-08-25T07:26:54;27.30;99.90
2002;DHT22;1003;48.002;7.788;2022-08-25T07:29:24;27.50;99.90
2002;DHT22;1003;48.002;7.788;2022-08-25T07:31:54;27.50;99.90
2002;DHT22;1003;48.002;7.788;2022-08-25T07:34:21;27.60;99.90
2002;DHT22;1003;48.002;7.788;2022-08-25T07:37:05;27.80;99.90
2002;DHT22;1003;48.002;7.788;2022-08-25T07:39:33;27.80;99.90
2002;DHT22;1003;48.002;7.788;2022-08-25T14:04:47;30.60;99.90
2002;DHT22;1003;48.002;7.788;2022-08-25T14:07:27;30.50;99.90
2002;DHT22;1003;48.002;7.788;2022-08-25T14:09:58;30.60;99.90
2002;DHT22;1003;48.002;7.788;2022-08-25T14:12:35;30.40;99.90
2002;DHT22;1003;48.002;7.788;2022-08-25T14:15:10;30.50;99.90
2002;DHT22;1003;48.002;7.788;2022-08-25T14:18:01;30.40;99.90
2002;DHT22;1003;48.002;7.788;2022-08-25T14:20:31;30.30;99.90
2002;DHT22;1003;48.002;7.788;2022-08-25T14:23:04;30.40;99.90
2002;DHT22;1003;48.002;7.788;2022-08-25T14:25:34;30.50;99.90
2002;DHT22;1003;48.002;7.788;2022-08-25T14:28:04;30.40;99.90
2002;DHT22;1003;48.002;7.788;2022-08-25T14:30:34;30.40;99.90
2002;DHT22;1003;48.002;7.788;2022-08-25T14:33:03;30.40;99.90
2002;DHT22;1003;48.002;7.788;2022-08-25T14:35:31;30.50;99.90
2002;DHT22;1003;48.002;7.788;2022-08-25T14:37:58;30.40;99.90
2002;DHT22;1003;48.002;7.788;2022-08-25T14:40:29;30.20;99.90
2002;DHT22;1003;48.002;7.788;2022-08-25T14:42:56;30.10;99.90
2002;DHT22;1003;48.002;7.788;2022-08-25T14:45:24;30.10;99.90
2002;DHT22;1003;48.002;7.788;2022-08-25T14:47:51;30.10;99.90
2002;DHT22;1003;48.002;7.788;2022-08-25T14:50:19;30.20;99.90
2002;DHT22;1003;48.002;7.788;2022-08-25T14:52:46;30.40;99.90
2002;DHT22;1003;48.002;7.788;2022-08-25T14:55:13;30.50;99.90
2002;DHT22;1003;48.002;7.788;2022-08-25T14:57:42;30.60;99.90
2002;DHT22;1003;48.002;7.788;2022-08-25T15:00:10;30.50;99.90
2002;DHT22;1003;48.002;7.788;2022-08-25T15:02:40;30.60;99.90
2002;DHT22;1003;48.002;7.788;2022-08-25T15:05:09;30.70;99.90
2002;DHT22;1003;48.002;7.788;2022-08-25T15:07:37;30.60;99.90
2002;DHT22;1003;48.002;7.788;2022-08-25T15:10:22;30.60;99.90
2002;DHT22;1003;48.002;7.788;2022-08-25T15:12:51;30.60;99.90
2002;DHT22;1003;48.002;7.788;2022-08-25T15:15:18;30.50;99.90
2002;DHT22;1003;48.002;7.788;2022-08-25T15:17:45;30.40;99.90
2002;DHT22;1003;48.002;7.788;2022-08-25T15:20:13;30.40;99.90
2002;DHT22;1003;48.002;7.788;2022-08-25T15:22:40;30.20;99.90
2002;DHT22;1003;48.002;7.788;2022-08-25T15:25:08;30.20;99.90
2002;DHT22;1003;48.002;7.788;2022-08-25T15:27:35;30.10;99.90
2002;DHT22;1003;48.002;7.788;2022-08-25T15:30:05;30.20;99.90
2002;DHT22;1003;48.002;7.788;2022-08-25T15:32:33;30.20;99.90
2002;DHT22;1003;48.002;7.788;2022-08-25T15:35:00;30.10;99.90
2002;DHT22;1003;48.002;7.788;2022-08-25T15:37:27;30.00;99.90
2002;DHT22;1003;48.002;7.788;2022-08-25T15:39:55;30.10;99.90
2002;DHT22;1003;48.002;7.788;2022-08-25T15:42:22;30.00;99.90
2002;DHT22;1003;48.002;7.788;2022-08-25T15:44:50;30.00;99.90
2002;DHT22;1003;48.002;7.788;2022-08-25T15:47:18;29.90;99.90
2002;DHT22;1003;48.002;7.788;2022-08-25T15:49:46;29.80;99.90
2002;DHT22;1003;48.002;7.788;2022-08-25T15:52:13;29.90;99.90
2002;DHT22;1003;48.002;7.788;2022-08-25T15:54:40;29.90;99.90
2002;DHT22;1003;48.002;7.788;2022-08-25T15:57:07;29.90;99.90
2002;DHT22;1003;48.002;7.788;2022-08-25T15:59:34;29.80;99.90
2002;DHT22;1003;48.002;7.788;2022-08-25T16:02:01;29.70;99.90
2002;DHT22;1003;48.002;7.788;2022-08-25T16:04:30;29.80;99.90
2002;DHT22;1003;48.002;7.788;2022-08-25T16:06:59;29.70;99.90
2002;DHT22;1003;48.002;7.788;2022-08-25T16:09:26;29.70;99.90
2002;DHT22;1003;48.002;7.788;2022-08-25T16:11:53;29.60;99.90
2002;DHT22;1003;48.002;7.788;2022-08-25T16:14:20;29.70;99.90
2002;DHT22;1003;48.002;7.788;2022-08-25T16:16:47;29.70;99.90
2002;DHT22;1003;48.002;7.788;2022-08-25T16:19:14;29.60;99.90
2002;DHT22;1003;48.002;7.788;2022-08-25T16:21:42;29.60;99.90
2002;DHT22;1003;48.002;7.788;2022-08-25T16:24:10;29.60;99.90
2002;DHT22;1003;48.002;7.788;2022-08-25T16:26:37;29.50;99.90
2002;DHT22;1003;48.002;7.788;2022-08-25T16:29:07;29.40;99.90
2002;DHT22;1003;48.002;7.788;2022-08-25T16:31:36;29.40;99.90
2002;DHT22;1003;48.002;7.788;2022-08-25T16:34:03;29.30;99.90
2002;DHT22;1003;48.002;7.788;2022-08-25T16:36:31;29.30;99.90
2002;DHT22;1003;48.002;7.788;2022-08-25T16:38:59;29.40;99.90
2002;DHT22;1003;48.002;7.788;2022-08-25T16:41:29;29.30;99.90
2002;DHT22;1003;48.002;7.788;2022-08-25T16:44:00;29.30;99.90
2002;DHT22;1003;48.002;7.788;2022-08-25T16:46:27;29.30;99.90
2002;DHT22;1003;48.002;7.788;2022-08-25T16:48:55;29.30;99.90
2002;DHT22;1003;48.002;7.788;2022-08-25T16:51:26;29.30;99.90
2002;DHT22;1003;48.002;7.788;2022-08-25T16:53:54;29.20;99.90
2002;DHT22;1003;48.002;7.788;2022-08-25T16:56:42;29.20;99.90
2002;DHT22;1003;48.002;7.788;2022-08-25T16:59:10;29.10;99.90
2002;DHT22;1003;48.002;7.788;2022-08-25T17:01:40;28.90;99.90
2002;DHT22;1003;48.002;7.788;2022-08-25T17:04:08;28.80;99.90
2002;DHT22;1003;48.002;7.788;2022-08-25T17:06:39;28.70;99.90
2002;DHT22;1003;48.002;7.788;2022-08-25T17:09:09;28.70;99.90
2002;DHT22;1003;48.002;7.788;2022-08-25T17:11:43;28.60;99.90
2002;DHT22;1003;48.002;7.788;2022-08-25T17:14:13;28.50;99.90
2002;DHT22;1003;48.002;7.788;2022-08-25T17:16:42;28.50;99.90
2002;DHT22;1003;48.002;7.788;2022-08-25T17:19:12;28.50;99.90
2002;DHT22;1003;48.002;7.788;2022-08-25T17:21:42;28.50;99.90
2002;DHT22;1003;48.002;7.788;2022-08-25T17:24:11;28.40;99.90
2002;DHT22;1003;48.002;7.788;2022-08-25T17:26:42;28.40;99.90
2002;DHT22;1003;48.002;7.788;2022-08-25T17:29:11;28.30;99.90
2002;DHT22;1003;48.002;7.788;2022-08-25T17:31:38;28.20;99.90
2002;DHT22;1003;48.002;7.788;2022-08-25T17:34:09;28.20;99.90
2002;DHT22;1003;48.002;7.788;2022-08-25T17:36:39;28.10;99.90
2002;DHT22;1003;48.002;7.788;2022-08-25T17:39:08;28.00;99.90
2002;DHT22;1003;48.002;7.788;2022-08-25T17:41:37;27.80;99.90
2002;DHT22;1003;48.002;7.788;2022-08-25T17:44:07;27.70;99.90
2002;DHT22;1003;48.002;7.788;2022-08-25T17:46:34;27.50;99.90
2002;DHT22;1003;48.002;7.788;2022-08-25T17:49:02;27.30;99.90
2002;DHT22;1003;48.002;7.788;2022-08-25T17:51:30;27.20;99.90
2002;DHT22;1003;48.002;7.788;2022-08-25T17:53:57;26.90;99.90
2002;DHT22;1003;48.002;7.788;2022-08-25T17:56:25;26.70;99.90
2002;DHT22;1003;48.002;7.788;2022-08-25T17:58:55;26.70;99.90
2002;DHT22;1003;48.002;7.788;2022-08-25T18:01:26;26.50;99.90
2002;DHT22;1003;48.002;7.788;2022-08-25T18:03:55;26.40;99.90
2002;DHT22;1003;48.002;7.788;2022-08-25T18:06:24;26.30;99.90
2002;DHT22;1003;48.002;7.788;2022-08-25T18:08:54;26.10;99.90
2002;DHT22;1003;48.002;7.788;2022-08-25T18:11:21;26.00;99.90
2002;DHT22;1003;48.002;7.788;2022-08-25T18:13:49;25.90;99.90
2002;DHT22;1003;48.002;7.788;2022-08-25T18:16:18;25.70;99.90
2002;DHT22;1003;48.002;7.788;2022-08-25T18:18:49;25.60;99.90
2002;DHT22;1003;48.002;7.788;2022-08-25T18:21:20;25.70;99.90
2002;DHT22;1003;48.002;7.788;2022-08-25T18:23:49;25.70;99.90
2002;DHT22;1003;48.002;7.788;2022-08-25T18:26:17;25.70;99.90
2002;DHT22;1003;48.002;7.788;2022-08-25T18:28:46;25.70;99.90
2002;DHT22;1003;48.002;7.788;2022-08-25T18:31:13;25.60;99.90
2002;DHT22;1003;48.002;7.788;2022-08-25T18:33:40;25.60;99.90
2002;DHT22;1003;48.002;7.788;2022-08-25T18:36:11;25.30;99.90
2002;DHT22;1003;48.002;7.788;2022-08-25T18:38:39;25.10;99.90
2002;DHT22;1003;48.002;7.788;2022-08-25T18:41:25;24.90;99.90
2002;DHT22;1003;48.002;7.788;2022-08-25T18:43:53;24.80;99.90
2002;DHT22;1003;48.002;7.788;2022-08-25T18:46:21;24.60;99.90
2002;DHT22;1003;48.002;7.788;2022-08-25T18:48:48;24.60;99.90
2002;DHT22;1003;48.002;7.788;2022-08-25T18:51:17;24.30;99.90
2002;DHT22;1003;48.002;7.788;2022-08-25T18:53:44;24.10;99.90
2002;DHT22;1003;48.002;7.788;2022-08-25T18:56:11;24.10;99.90
2002;DHT22;1003;48.002;7.788;2022-08-25T18:58:38;24.20;99.90
2002;DHT22;1003;48.002;7.788;2022-08-25T19:01:05;24.40;99.90
2002;DHT22;1003;48.002;7.788;2022-08-25T19:03:32;24.20;99.90
2002;DHT22;1003;48.002;7.788;2022-08-25T19:05:59;24.40;99.90
2002;DHT22;1003;48.002;7.788;2022-08-25T19:08:28;24.30;99.90
2002;DHT22;1003;48.002;7.788;2022-08-25T19:10:55;24.40;99.90
2002;DHT22;1003;48.002;7.788;2022-08-25T19:13:22;24.40;99.90
2002;DHT22;1003;48.002;7.788;2022-08-25T19:15:50;24.40;99.90
2002;DHT22;1003;48.002;7.788;2022-08-25T19:18:18;24.40;99.90
2002;DHT22;1003;48.002;7.788;2022-08-25T19:20:47;24.40;99.90
2002;DHT22;1003;48.002;7.788;2022-08-25T19:23:14;24.40;99.90
2002;DHT22;1003;48.002;7.788;2022-08-25T19:25:43;24.40;99.90
2002;DHT22;1003;48.002;7.788;2022-08-25T19:28:11;24.20;99.90
2002;DHT22;1003;48.002;7.788;2022-08-25T19:30:38;24.00;99.90
2002;DHT22;1003;48.002;7.788;2022-08-25T19:33:06;24.00;99.90
2002;DHT22;1003;48.002;7.788;2022-08-25T19:35:38;24.10;99.90
2002;DHT22;1003;48.002;7.788;2022-08-25T19:38:12;24.00;99.90
2002;DHT22;1003;48.002;7.788;2022-08-25T19:40:43;24.00;99.90
2002;DHT22;1003;48.002;7.788;2022-08-25T19:43:10;24.00;99.90
2002;DHT22;1003;48.002;7.788;2022-08-25T19:45:39;24.00;99.90
2002;DHT22;1003;48.002;7.788;2022-08-25T19:48:08;24.10;99.90
2002;DHT22;1003;48.002;7.788;2022-08-25T19:50:37;23.90;99.90
2002;DHT22;1003;48.002;7.788;2022-08-25T19:53:04;24.00;99.90
2002;DHT22;1003;48.002;7.788;2022-08-25T19:55:32;23.90;99.90
2002;DHT22;1003;48.002;7.788;2022-08-25T19:58:00;23.80;99.90
2002;DHT22;1003;48.002;7.788;2022-08-25T20:00:31;24.00;99.90
2002;DHT22;1003;48.002;7.788;2022-08-25T20:03:00;23.90;99.90
2002;DHT22;1003;48.002;7.788;2022-08-25T20:05:28;23.80;99.90
2002;DHT22;1003;48.002;7.788;2022-08-25T20:07:56;24.00;99.90
2002;DHT22;1003;48.002;7.788;2022-08-25T20:10:25;23.80;99.90
2002;DHT22;1003;48.002;7.788;2022-08-25T20:12:57;23.80;99.90
2002;DHT22;1003;48.002;7.788;2022-08-25T20:15:27;23.70;99.90
2002;DHT22;1003;48.002;7.788;2022-08-25T20:17:56;23.80;99.90
2002;DHT22;1003;48.002;7.788;2022-08-25T20:20:24;23.60;99.90
2002;DHT22;1003;48.002;7.788;2022-08-25T20:22:53;23.50;99.90
2002;DHT22;1003;48.002;7.788;2022-08-25T20:25:40;23.60;99.90
2002;DHT22;1003;48.002;7.788;2022-08-25T20:28:07;23.40;99.90
2002;DHT22;1003;48.002;7.788;2022-08-25T20:30:36;23.40;99.90
2002;DHT22;1003;48.002;7.788;2022-08-25T20:33:03;23.40;99.90
2002;DHT22;1003;48.002;7.788;2022-08-25T20:35:31;23.50;99.90
2002;DHT22;1003;48.002;7.788;2022-08-25T20:37:58;23.40;99.90
2002;DHT22;1003;48.002;7.788;2022-08-25T20:40:28;23.40;99.90
2002;DHT22;1003;48.002;7.788;2022-08-25T20:42:57;23.40;99.90
2002;DHT22;1003;48.002;7.788;2022-08-25T20:45:27;23.30;99.90
2002;DHT22;1003;48.002;7.788;2022-08-25T20:47:56;23.50;99.90
2002;DHT22;1003;48.002;7.788;2022-08-25T20:50:23;23.50;99.90
2002;DHT22;1003;48.002;7.788;2022-08-25T20:52:51;23.30;99.90
2002;DHT22;1003;48.002;7.788;2022-08-25T20:55:21;23.30;99.90
2002;DHT22;1003;48.002;7.788;2022-08-25T20:57:48;23.00;99.90
2002;DHT22;1003;48.002;7.788;2022-08-25T21:00:16;23.00;99.90
2002;DHT22;1003;48.002;7.788;2022-08-25T21:02:44;23.00;99.90
2002;DHT22;1003;48.002;7.788;2022-08-25T21:05:13;23.00;99.90
2002;DHT22;1003;48.002;7.788;2022-08-25T21:07:41;23.20;99.90
2002;DHT22;1003;48.002;7.788;2022-08-25T21:10:09;22.90;99.90
2002;DHT22;1003;48.002;7.788;2022-08-25T21:12:37;23.10;99.90
2002;DHT22;1003;48.002;7.788;2022-08-25T21:15:06;23.10;99.90
2002;DHT22;1003;48.002;7.788;2022-08-25T21:17:34;22.90;99.90
2002;DHT22;1003;48.002;7.788;2022-08-25T21:20:02;22.90;99.90
2002;DHT22;1003;48.002;7.788;2022-08-25T21:22:32;23.10;99.90
2002;DHT22;1003;48.002;7.788;2022-08-25T21:25:00;23.10;99.90
2002;DHT22;1003;48.002;7.788;2022-08-25T21:27:27;22.90;99.90
2002;DHT22;1003;48.002;7.788;2022-08-25T21:29:54;22.70;99.90
2002;DHT22;1003;48.002;7.788;2022-08-25T21:32:22;22.90;99.90
2002;DHT22;1003;48.002;7.788;2022-08-25T21:34:51;22.70;99.90
2002;DHT22;1003;48.002;7.788;2022-08-25T21:37:19;22.70;99.90
2002;DHT22;1003;48.002;7.788;2022-08-25T21:39:48;22.80;99.90
2002;DHT22;1003;48.002;7.788;2022-08-25T21:42:15;22.60;99.90
2002;DHT22;1003;48.002;7.788;2022-08-25T21:44:43;22.60;99.90
2002;DHT22;1003;48.002;7.788;2022-08-25T21:47:10;22.70;99.90
2002;DHT22;1003;48.002;7.788;2022-08-25T21:49:37;22.40;99.90
2002;DHT22;1003;48.002;7.788;2022-08-25T21:52:04;22.40;99.90
2002;DHT22;1003;48.002;7.788;2022-08-25T21:54:31;22.60;99.90
2002;DHT22;1003;48.002;7.788;2022-08-25T21:57:02;22.70;99.90
2002;DHT22;1003;48.002;7.788;2022-08-25T21:59:32;22.50;99.90
2002;DHT22;1003;48.002;7.788;2022-08-25T22:02:04;22.50;99.90
2002;DHT22;1003;48.002;7.788;2022-08-25T22:04:33;22.40;99.90
2002;DHT22;1003;48.002;7.788;2022-08-25T22:07:00;22.20;99.90
2002;DHT22;1003;48.002;7.788;2022-08-25T22:09:27;22.30;99.90
2002;DHT22;1003;48.002;7.788;2022-08-25T22:11:55;22.20;99.90
2002;DHT22;1003;48.002;7.788;2022-08-25T22:14:24;21.80;99.90
2002;DHT22;1003;48.002;7.788;2022-08-25T22:16:52;21.90;99.90
2002;DHT22;1003;48.002;7.788;2022-08-25T22:19:19;21.90;99.90
2002;DHT22;1003;48.002;7.788;2022-08-25T22:21:47;21.90;99.90
2002;DHT22;1003;48.002;7.788;2022-08-25T22:24:14;21.70;99.90
2002;DHT22;1003;48.002;7.788;2022-08-25T22:26:41;21.70;99.90
2002;DHT22;1003;48.002;7.788;2022-08-25T22:29:09;21.70;99.90
2002;DHT22;1003;48.002;7.788;2022-08-25T22:31:37;21.70;99.90
2002;DHT22;1003;48.002;7.788;2022-08-25T22:34:05;21.50;99.90
2002;DHT22;1003;48.002;7.788;2022-08-25T22:36:35;21.40;99.90
2002;DHT22;1003;48.002;7.788;2022-08-25T22:39:06;21.50;99.90
2002;DHT22;1003;48.002;7.788;2022-08-25T22:41:34;21.40;99.90
2002;DHT22;1003;48.002;7.788;2022-08-25T22:44:02;21.50;99.90
2002;DHT22;1003;48.002;7.788;2022-08-25T22:46:32;21.40;99.90
2002;DHT22;1003;48.002;7.788;2022-08-25T22:49:00;21.50;99.90
2002;DHT22;1003;48.002;7.788;2022-08-25T22:51:29;21.40;99.90
2002;DHT22;1003;48.002;7.788;2022-08-25T22:53:57;21.50;99.90
2002;DHT22;1003;48.002;7.788;2022-08-25T22:56:28;21.40;99.90
2002;DHT22;1003;48.002;7.788;2022-08-25T22:58:57;21.30;99.90
2002;DHT22;1003;48.002;7.788;2022-08-25T23:01:26;21.40;99.90
2002;DHT22;1003;48.002;7.788;2022-08-25T23:03:53;21.30;99.90
2002;DHT22;1003;48.002;7.788;2022-08-25T23:06:23;21.40;99.90
2002;DHT22;1003;48.002;7.788;2022-08-25T23:08:52;21.40;99.90
2002;DHT22;1003;48.002;7.788;2022-08-25T23:11:21;21.50;99.90
2002;DHT22;1003;48.002;7.788;2022-08-25T23:13:52;21.40;99.90
2002;DHT22;1003;48.002;7.788;2022-08-25T23:16:20;21.40;99.90
2002;DHT22;1003;48.002;7.788;2022-08-25T23:18:48;21.30;99.90
2002;DHT22;1003;48.002;7.788;2022-08-25T23:21:15;21.30;99.90
2002;DHT22;1003;48.002;7.788;2022-08-25T23:24:01;21.10;99.90
2002;DHT22;1003;48.002;7.788;2022-08-25T23:26:29;21.00;99.90
2002;DHT22;1003;48.002;7.788;2022-08-25T23:28:57;21.00;99.90
2002;DHT22;1003;48.002;7.788;2022-08-25T23:31:24;21.10;99.90
2002;DHT22;1003;48.002;7.788;2022-08-25T23:33:51;20.90;99.90
2002;DHT22;1003;48.002;7.788;2022-08-25T23:36:18;20.90;99.90
2002;DHT22;1003;48.002;7.788;2022-08-25T23:38:46;20.80;99.90
2002;DHT22;1003;48.002;7.788;2022-08-25T23:41:17;20.60;99.90
2002;DHT22;1003;48.002;7.788;2022-08-25T23:43:47;20.40;99.90
2002;DHT22;1003;48.002;7.788;2022-08-25T23:46:16;20.30;99.90
2002;DHT22;1003;48.002;7.788;2022-08-25T23:48:47;20.10;99.90
2002;DHT22;1003;48.002;7.788;2022-08-25T23:51:21;20.10;99.90
2002;DHT22;1003;48.002;7.788;2022-08-25T23:53:51;20.00;99.90
2002;DHT22;1003;48.002;7.788;2022-08-25T23:56:21;20.20;99.90